x

Buoy I01 - Eastern Maine Shelf (44034) Wave Buoy

1:04 - Tue 24th Jan 2017 All times are EST. -5 hours from GMT.

  • Sig Wave height 8.5ft
  • Peak Period 6s
  • Wind
    31mph, 40mph gusts
  • Sea Temp 44°f
  • Air Temp 37°f
  • Sea Pressure 1015mb
  • Buoy I01 - Eastern Maine Shelf
  • Buoy I01 - Eastern Maine Shelf

More Historic Weather Station data

Upgrade to MSW Pro to gain access to the past 30 days of data for over 8000 Wavebouys and Weather Stations around the globe.

Join Pro

Comparision Forecast

View Surf forecast
   
mar. 01/24 1:04 8.5ft 6s 31 40 mph 1015mb 44f 37f
12:04 7.5ft 6s 29 36 mph 1016.1mb 44f 37f
lun. 01/23 11:04 6ft 6s 27 34 mph 1017.4mb 44f 38f
10:04 6ft 6s 27 34 mph 1017mb 43f 38f
9:04 5.5ft 6s 27 31 mph 1016.8mb 42f 38f
8:04 5ft 5s 22 29 mph 1018mb 42f 38f
6:04 6ft 5s 25 29 mph 1018.7mb 42f 36f
5:04 5.5ft 5s 22 27 mph 1019.3mb 42f 35f
4:04 5.5ft 6s 22 29 mph 1019.2mb 42f 34f
3:04 5ft 6s 25 29 mph 1019.4mb 42f 33f
2:04 5ft 6s 22 27 mph 1019.4mb 42f 33f
1:04 5ft 5s 25 29 mph 1019.1mb 42f 33f
9:04 5ft 5s 25 29 mph 1020.7mb 44f 33f
8:04 5ft 6s 25 29 mph 1020.7mb 44f 32f
7:04 6ft 5s 25 29 mph 1019.1mb 44f 32f
6:04 5ft 5s 25 27 mph 1019.2mb 44f 32f
5:04 5.5ft 6s 22 27 mph 1019.2mb 44f 33f
4:04 5ft 6s 25 29 mph 1018.7mb 44f 33f
3:04 5ft 6s 25 29 mph 1018.5mb 44f 33f
2:04 4.5ft 5s 25 27 mph 1018.7mb 44f 33f
1:04 5ft 5s 22 29 mph 1018.4mb 44f 34f
12:04 4.5ft 5s 18 22 mph 1018.8mb 44f 35f
dim. 01/22 11:04 5ft 5s 20 25 mph 1018.4mb 44f 35f
10:04 4ft 5s 20 25 mph 1017.3mb 44f 35f
9:04 4.5ft 5s 22 27 mph 1016.7mb 45f 35f
8:04 4ft 5s 22 27 mph 1016mb 45f 36f
7:04 3.5ft 5s 22 29 mph 1014.9mb 45f 36f
6:04 3.5ft 4s 25 29 mph 1014.5mb 45f 37f
5:04 2.5ft 4s 22 27 mph 1014.1mb 45f 38f
4:04 2.5ft 4s 18 20 mph 1013.8mb 45f 39f
3:04 2ft 4s 16 18 mph 1012.7mb 45f 38f
2:04 2ft 4s 13 18 mph 1012.2mb 45f 38f
1:04 2ft 4s 13 16 mph 1012mb 45f 38f
12:04 2ft 4s 16 18 mph 1011.1mb 44f 37f
11:04 2ft 5s 13 18 mph 1011.3mb 45f 37f
10:04  -   -  13 18 mph 1011mb 45f 37f
9:04  -   -  11 16 mph 1011.2mb 45f 37f
8:04  -   -  13 16 mph 1010.2mb 45f 37f
7:04 5ft 11s 16 20 mph 1008.7mb 45f 37f
6:04 5ft 11s 16 20 mph 1008.1mb 45f 37f
5:04 4.5ft 11s 16 20 mph 1007.9mb 45f 37f
4:04 2.5ft 3s 16 20 mph 1007.6mb 44f 37f
3:04 2ft 5s 13 16 mph 1007.3mb 44f 38f
2:04 1.6ft 5s 13 16 mph 1007.2mb 44f 40f
1:04 1.3ft 5s 9 11 mph 1007mb 44f 40f
12:04 1.6ft 5s 7
mph
1006.7mb 44f 41f
sam. 01/21 11:04 1.6ft 5s 4
mph
1006.7mb 44f 41f
10:04 1.6ft 5s 4 7 mph 1006.6mb 44f 41f
9:04 3.5ft 11s 7
mph
1006.4mb 45f 41f
8:04 3.5ft 11s 7 9 mph 1006.9mb 45f 41f
7:04 4ft 11s 4 7 mph 1006.4mb 45f 40f
6:04 4ft 11s 9 11 mph 1006.2mb 45f 40f
5:04 3.5ft 11s 11 13 mph 1005.6mb 44f 40f
4:04 3.5ft 11s 9 11 mph 1005.2mb 44f 40f
3:04 1.6ft 4s 7 9 mph 1005.6mb 44f 38f
2:04 1.3ft 4s 7
mph
1005.6mb 44f 38f
1:04 1.6ft 4s 9
mph
1005.9mb 44f 38f
12:04 3.5ft 11s 7 9 mph 1006.9mb 44f 39f
11:04 1.6ft 4s 7
mph
1008.3mb 44f 39f
10:04 3.5ft 11s 7 9 mph 1009.3mb 44f 40f
9:04 1.6ft 4s 9 11 mph 1009.6mb 44f 40f
8:04 4ft 11s 11
mph
1009.4mb 45f 41f
7:04 4.5ft 11s 16 18 mph 1009.6mb 45f 41f
6:04 4.5ft 11s 13 18 mph 1010.1mb 45f 41f
5:04  -   -  11 16 mph 1010.5mb 45f 41f
4:04 4.5ft 11s 4 7 mph 1011mb 45f 39f
3:04 3ft 11s 4 7 mph 1011.6mb 45f 39f
2:04 3.5ft 11s 7 11 mph 1012.1mb 45f 39f
1:04 2.5ft 11s 11 13 mph 1012.4mb 45f 40f
12:04 2.5ft 11s 9 11 mph 1012.4mb 45f 40f
ven. 01/20 11:04 3.5ft 11s 4 7 mph 1013.2mb 45f 39f
10:04 3ft 11s 2 4 mph 1013.7mb 45f 38f
9:04 3ft 11s 2 7 mph 1014mb 45f 38f
8:04 3.5ft 11s 2 4 mph 1014mb 45f 38f
7:04 3.5ft 11s 4 9 mph 1014.1mb 45f 38f
6:04 3.5ft 11s 4 9 mph 1014.3mb 45f 38f
5:04 3ft 11s 7 11 mph 1014mb 45f 38f
4:04 3ft 11s 2 4 mph 1014.1mb 45f 38f
3:04 3.5ft 11s 2 4 mph 1014.3mb 45f 38f
2:04 3ft 11s 2 4 mph 1014.3mb 45f 38f
1:04 3.5ft 11s 7
mph
1014.4mb 45f 38f
12:04 3.5ft 11s 7 11 mph 1014.6mb 45f 37f
11:04 4ft 11s 9 13 mph 1015.7mb 45f 37f
10:04 3.5ft 11s 11 13 mph 1016.2mb 45f 37f
9:04  -   -  11 13 mph 1015.9mb 45f 37f
8:04 5ft 11s 11 16 mph 1016.1mb 45f 37f